Time;durP1;ratioP1;P1;durP2;ratioP2;P2;SDS_P1;SDS_P2;PMS_P1;PMS_P2;Temp;Humidity;BMP_temperature;BMP_pressure;BME280_temperature;BME280_humidity;BME280_pressure;Samples;Min_cycle;Max_cycle;Signal;HPM_P1;HPM_P2
2023/08/13 00:02:36;;;;;;;;;;;23.20;61.70;;;;;;10147482;28;94587;-62
2023/08/13 00:07:38;;;;;;;;;;;23.10;62.70;;;;;;10151441;28;92759;-61
2023/08/13 00:12:40;;;;;;;;;;;23.10;61.70;;;;;;10152803;28;92706;-62
2023/08/13 00:17:41;;;;;;;;;;;23.10;61.80;;;;;;10166915;28;93704;-62
2023/08/13 00:22:43;;;;;;;;;;;23.10;61.90;;;;;;10147583;28;93529;-62
2023/08/13 00:27:45;;;;;;;;;;;23.10;61.90;;;;;;10175373;28;95127;-62
2023/08/13 00:32:48;;;;;;;;;;;23.10;61.90;;;;;;10170055;28;96113;-62
2023/08/13 00:37:49;;;;;;;;;;;23.10;62.00;;;;;;10146697;28;93446;-62
2023/08/13 00:42:52;;;;;;;;;;;23.00;62.00;;;;;;10151058;28;93767;-62
2023/08/13 00:47:56;;;;;;;;;;;23.00;62.10;;;;;;10141806;28;93940;-62
2023/08/13 00:52:58;;;;;;;;;;;23.00;62.10;;;;;;10153091;28;94499;-62
2023/08/13 00:58:01;;;;;;;;;;;23.00;62.20;;;;;;10155774;28;94737;-62
2023/08/13 01:03:02;;;;;;;;;;;23.00;62.20;;;;;;10167457;28;94966;-62
2023/08/13 01:08:10;;;;;;;;;;;23.00;62.20;;;;;;10162667;28;93799;-62
2023/08/13 01:13:21;;;;;;;;;;;22.90;62.20;;;;;;10153719;28;92880;-62
2023/08/13 01:18:24;;;;;;;;;;;22.90;62.30;;;;;;10131015;28;93432;-62
2023/08/13 01:23:25;;;;;;;;;;;22.90;62.30;;;;;;10153704;28;95827;-62
2023/08/13 01:28:36;;;;;;;;;;;22.90;62.40;;;;;;10144838;28;93586;-62
2023/08/13 01:33:40;;;;;;;;;;;22.90;62.40;;;;;;10172479;28;93479;-62
2023/08/13 01:38:43;;;;;;;;;;;22.90;62.40;;;;;;10148385;28;92994;-62
2023/08/13 01:43:45;;;;;;;;;;;22.90;62.40;;;;;;10157649;28;93398;-62
2023/08/13 01:48:47;;;;;;;;;;;22.90;62.40;;;;;;10148132;28;96631;-62
2023/08/13 01:53:49;;;;;;;;;;;22.90;62.40;;;;;;10149087;28;92687;-62
2023/08/13 01:58:51;;;;;;;;;;;22.90;62.40;;;;;;10151750;28;93669;-62
2023/08/13 02:03:53;;;;;;;;;;;22.90;62.40;;;;;;10143127;28;94420;-62
2023/08/13 02:08:54;;;;;;;;;;;22.90;62.50;;;;;;10150138;28;94419;-62
2023/08/13 02:13:56;;;;;;;;;;;22.90;62.40;;;;;;10148538;28;96745;-62
2023/08/13 02:18:58;;;;;;;;;;;22.90;62.40;;;;;;10163111;28;93745;-62
2023/08/13 02:24:01;;;;;;;;;;;22.90;62.40;;;;;;10150068;28;93989;-61
2023/08/13 02:29:02;;;;;;;;;;;22.90;62.40;;;;;;10151553;28;93320;-62
2023/08/13 02:34:04;;;;;;;;;;;22.90;62.40;;;;;;10159969;28;93690;-62
2023/08/13 02:39:06;;;;;;;;;;;22.90;62.40;;;;;;10153582;28;94415;-62
2023/08/13 02:44:08;;;;;;;;;;;22.90;62.40;;;;;;10154523;28;93436;-62
2023/08/13 02:49:09;;;;;;;;;;;22.90;62.40;;;;;;10159856;28;92739;-62
2023/08/13 02:54:11;;;;;;;;;;;22.90;62.40;;;;;;10150065;28;94765;-62
2023/08/13 02:59:13;;;;;;;;;;;22.90;62.30;;;;;;10139995;28;93515;-62
2023/08/13 03:04:14;;;;;;;;;;;22.90;62.40;;;;;;10125059;28;95840;-62
2023/08/13 03:09:21;;;;;;;;;;;22.90;62.40;;;;;;10147830;28;93651;-62
2023/08/13 03:14:22;;;;;;;;;;;22.90;62.40;;;;;;10146393;28;93982;-62
2023/08/13 03:19:24;;;;;;;;;;;22.90;62.40;;;;;;10143297;28;94456;-62
2023/08/13 03:24:26;;;;;;;;;;;23.00;62.40;;;;;;10157585;28;93536;-62
2023/08/13 03:29:29;;;;;;;;;;;22.90;62.40;;;;;;10156574;28;93437;-63
2023/08/13 03:34:31;;;;;;;;;;;22.90;62.30;;;;;;10146395;28;94196;-62
2023/08/13 03:39:33;;;;;;;;;;;22.90;62.40;;;;;;10155420;28;93596;-63
2023/08/13 03:44:34;;;;;;;;;;;22.90;62.40;;;;;;10138596;28;94488;-62
2023/08/13 03:49:36;;;;;;;;;;;22.90;62.40;;;;;;10145248;28;94439;-62
2023/08/13 03:54:38;;;;;;;;;;;22.90;62.40;;;;;;10140105;28;96866;-62
2023/08/13 03:59:39;;;;;;;;;;;22.90;62.40;;;;;;10142237;28;94154;-62
2023/08/13 04:04:41;;;;;;;;;;;22.90;62.40;;;;;;10145836;28;94442;-62
2023/08/13 04:09:43;;;;;;;;;;;22.90;62.40;;;;;;10148982;28;94446;-62
2023/08/13 04:14:45;;;;;;;;;;;22.90;62.40;;;;;;10148014;28;94429;-62
2023/08/13 04:19:47;;;;;;;;;;;22.90;62.30;;;;;;10153208;28;94445;-62
2023/08/13 04:24:50;;;;;;;;;;;22.90;62.40;;;;;;10138667;28;94662;-61
2023/08/13 04:29:52;;;;;;;;;;;22.90;62.40;;;;;;10140972;28;93668;-62
2023/08/13 04:34:53;;;;;;;;;;;22.90;62.40;;;;;;10156591;28;94071;-62
2023/08/13 04:39:56;;;;;;;;;;;22.80;62.40;;;;;;10156946;28;93715;-62
2023/08/13 04:44:58;;;;;;;;;;;22.80;62.40;;;;;;10135239;28;95827;-62
2023/08/13 04:50:00;;;;;;;;;;;22.80;62.40;;;;;;10575521;23;95045;-45
2023/08/13 04:55:02;;;;;;;;;;;22.80;62.50;;;;;;10154526;28;94412;-47
2023/08/13 05:00:04;;;;;;;;;;;22.80;62.50;;;;;;10155360;28;94822;-45
2023/08/13 05:05:06;;;;;;;;;;;22.80;62.50;;;;;;10151592;28;93857;-51
2023/08/13 05:10:08;;;;;;;;;;;22.80;62.50;;;;;;10162890;28;93841;-47
2023/08/13 05:15:10;;;;;;;;;;;22.70;62.50;;;;;;10159269;28;94475;-48
2023/08/13 05:20:12;;;;;;;;;;;22.70;62.60;;;;;;10136215;28;93004;-49
2023/08/13 05:25:14;;;;;;;;;;;22.70;62.60;;;;;;10149466;28;95249;-48
2023/08/13 05:30:15;;;;;;;;;;;22.70;62.60;;;;;;10161546;28;94661;-44
2023/08/13 05:35:17;;;;;;;;;;;22.70;62.60;;;;;;10146942;28;96839;-44
2023/08/13 05:40:19;;;;;;;;;;;22.70;62.60;;;;;;10149492;28;94389;-45
2023/08/13 05:45:21;;;;;;;;;;;22.60;62.70;;;;;;10159843;28;93575;-43
2023/08/13 05:50:24;;;;;;;;;;;22.70;62.80;;;;;;10138154;28;93470;-46
2023/08/13 05:55:26;;;;;;;;;;;22.70;62.80;;;;;;10177339;28;93876;-43
2023/08/13 06:00:28;;;;;;;;;;;22.60;62.70;;;;;;10157269;28;93509;-47
2023/08/13 06:05:31;;;;;;;;;;;22.60;62.70;;;;;;10175397;28;93581;-48
2023/08/13 06:10:32;;;;;;;;;;;22.60;62.80;;;;;;10128453;28;93982;-44
2023/08/13 06:15:34;;;;;;;;;;;22.60;62.90;;;;;;10158334;28;95200;-46
2023/08/13 06:20:36;;;;;;;;;;;22.60;62.90;;;;;;10170732;28;93370;-45
2023/08/13 06:25:39;;;;;;;;;;;22.60;63.00;;;;;;10155500;28;97409;-45
2023/08/13 06:30:42;;;;;;;;;;;22.60;63.10;;;;;;10160424;28;93247;-47
2023/08/13 06:35:47;;;;;;;;;;;22.60;63.00;;;;;;10160787;28;95024;-46
2023/08/13 06:40:49;;;;;;;;;;;22.60;63.90;;;;;;10153896;28;94571;-43
2023/08/13 06:45:51;;;;;;;;;;;22.70;63.70;;;;;;10122541;28;94161;-44
2023/08/13 06:50:53;;;;;;;;;;;22.70;64.10;;;;;;10147595;28;94449;-46
2023/08/13 06:55:55;;;;;;;;;;;22.80;64.50;;;;;;10156812;28;94574;-47
2023/08/13 07:00:56;;;;;;;;;;;22.80;64.20;;;;;;10157737;28;93784;-48
2023/08/13 07:05:59;;;;;;;;;;;22.80;64.10;;;;;;10159986;28;94199;-47
2023/08/13 07:11:01;;;;;;;;;;;22.80;64.10;;;;;;10129111;28;94720;-51
2023/08/13 07:16:03;;;;;;;;;;;22.90;64.00;;;;;;10149235;28;97057;-47
2023/08/13 07:21:06;;;;;;;;;;;22.80;63.80;;;;;;10133843;28;94671;-46
2023/08/13 07:26:08;;;;;;;;;;;22.80;63.70;;;;;;10154706;28;93797;-49
2023/08/13 07:31:09;;;;;;;;;;;22.80;63.60;;;;;;10142266;28;94502;-49
2023/08/13 07:36:11;;;;;;;;;;;22.80;63.70;;;;;;10153704;28;94329;-54
2023/08/13 07:41:13;;;;;;;;;;;22.80;63.50;;;;;;10150597;28;95261;-45
2023/08/13 07:46:15;;;;;;;;;;;22.80;63.50;;;;;;10161109;28;93493;-46
2023/08/13 07:51:17;;;;;;;;;;;22.80;63.50;;;;;;10155417;28;94008;-46
2023/08/13 07:56:18;;;;;;;;;;;22.80;63.60;;;;;;10151750;28;93777;-45
2023/08/13 08:01:20;;;;;;;;;;;22.80;63.60;;;;;;10154588;28;93557;-44
2023/08/13 08:06:22;;;;;;;;;;;22.80;63.50;;;;;;10150920;28;96819;-47
2023/08/13 08:11:24;;;;;;;;;;;22.80;63.50;;;;;;10163754;28;94641;-44
2023/08/13 08:16:25;;;;;;;;;;;22.80;63.40;;;;;;10164117;28;94419;-45
2023/08/13 08:21:27;;;;;;;;;;;22.80;63.30;;;;;;10169705;28;94352;-44
2023/08/13 08:26:30;;;;;;;;;;;22.90;63.50;;;;;;10149212;28;93296;-44
2023/08/13 08:31:32;;;;;;;;;;;22.90;63.40;;;;;;10141179;28;93730;-47
2023/08/13 08:36:34;;;;;;;;;;;22.90;63.40;;;;;;10143903;28;93466;-46
2023/08/13 08:41:39;;;;;;;;;;;22.90;63.40;;;;;;10149110;28;93561;-45
2023/08/13 08:46:41;;;;;;;;;;;22.90;63.40;;;;;;10163182;28;93199;-45
2023/08/13 08:51:43;;;;;;;;;;;22.90;63.40;;;;;;10168511;28;93875;-48
2023/08/13 08:56:45;;;;;;;;;;;22.90;63.40;;;;;;10151285;28;97197;-46
2023/08/13 09:01:46;;;;;;;;;;;22.90;63.40;;;;;;10142028;28;94568;-45
2023/08/13 09:06:52;;;;;;;;;;;22.90;63.30;;;;;;10159572;28;94785;-47
2023/08/13 09:11:55;;;;;;;;;;;22.90;63.20;;;;;;10153202;28;94431;-46
2023/08/13 09:16:57;;;;;;;;;;;23.00;63.30;;;;;;10157979;28;94408;-69
2023/08/13 09:22:00;;;;;;;;;;;23.00;63.20;;;;;;10163911;28;93569;-48
2023/08/13 09:27:02;;;;;;;;;;;23.00;63.20;;;;;;10162048;28;93450;-49
2023/08/13 09:32:04;;;;;;;;;;;23.00;63.20;;;;;;10155258;28;92786;-49
2023/08/13 09:37:06;;;;;;;;;;;23.10;63.20;;;;;;10161608;28;93545;-46
2023/08/13 09:42:08;;;;;;;;;;;23.00;63.20;;;;;;10162989;28;94392;-45
2023/08/13 09:47:10;;;;;;;;;;;23.00;63.10;;;;;;10148454;28;96857;-46
2023/08/13 09:52:14;;;;;;;;;;;23.00;63.10;;;;;;10173304;28;94723;-48
2023/08/13 09:57:17;;;;;;;;;;;23.10;63.10;;;;;;10149964;28;94339;-48
2023/08/13 10:02:21;;;;;;;;;;;23.10;63.00;;;;;;10151087;28;94841;-46
2023/08/13 10:07:23;;;;;;;;;;;23.10;63.00;;;;;;10148655;28;93939;-45
2023/08/13 10:12:25;;;;;;;;;;;23.10;62.70;;;;;;10127255;28;94621;-44
2023/08/13 10:17:28;;;;;;;;;;;23.10;63.40;;;;;;10145365;28;94608;-46
2023/08/13 10:22:37;;;;;;;;;;;23.10;63.40;;;;;;10147558;28;92898;-45
2023/08/13 10:27:43;;;;;;;;;;;23.10;63.10;;;;;;10156395;28;94262;-44
2023/08/13 10:32:49;;;;;;;;;;;23.10;62.60;;;;;;10159179;28;93476;-44
2023/08/13 10:37:57;;;;;;;;;;;23.10;62.90;;;;;;10150124;28;96679;-45
2023/08/13 10:43:00;;;;;;;;;;;23.20;63.00;;;;;;10141831;28;93829;-46
2023/08/13 10:48:03;;;;;;;;;;;23.20;62.90;;;;;;10150245;22;93622;-46
2023/08/13 10:53:25;;;;;;;;;;;23.20;63.70;;;;;;10158224;28;113998;-44
2023/08/13 10:58:29;;;;;;;;;;;23.20;62.50;;;;;;10144024;28;95238;-44
2023/08/13 11:03:31;;;;;;;;;;;23.20;62.40;;;;;;10140469;28;94303;-45
2023/08/13 11:08:36;;;;;;;;;;;23.20;62.70;;;;;;10161248;28;93961;-47
2023/08/13 11:13:49;;;;;;;;;;;23.20;62.60;;;;;;10164316;28;93684;-46
2023/08/13 11:18:51;;;;;;;;;;;23.20;62.80;;;;;;10160613;28;93544;-47
2023/08/13 11:23:53;;;;;;;;;;;23.20;62.90;;;;;;10158351;28;94420;-52
2023/08/13 11:28:57;;;;;;;;;;;23.30;63.20;;;;;;10157275;28;95803;-49
2023/08/13 11:34:00;;;;;;;;;;;23.30;63.10;;;;;;10160456;28;93928;-49
2023/08/13 11:39:03;;;;;;;;;;;23.30;63.00;;;;;;10162656;28;93934;-50
2023/08/13 11:44:06;;;;;;;;;;;23.30;63.00;;;;;;10159378;28;93803;-46
2023/08/13 11:49:14;;;;;;;;;;;23.20;62.90;;;;;;10154491;28;94476;-47
2023/08/13 11:54:17;;;;;;;;;;;23.20;62.50;;;;;;10170952;28;93481;-44
2023/08/13 11:59:22;;;;;;;;;;;23.10;62.80;;;;;;10157418;28;93547;-46
2023/08/13 12:04:29;;;;;;;;;;;23.10;63.20;;;;;;10157094;28;93716;-46
2023/08/13 12:09:38;;;;;;;;;;;23.20;63.20;;;;;;10139611;28;93610;-48
2023/08/13 12:14:44;;;;;;;;;;;23.20;63.30;;;;;;10153304;28;93480;-44
2023/08/13 12:19:46;;;;;;;;;;;23.20;63.60;;;;;;10147678;28;95980;-45
2023/08/13 12:24:47;;;;;;;;;;;23.20;63.70;;;;;;10155063;28;94992;-45
2023/08/13 12:29:49;;;;;;;;;;;23.20;63.80;;;;;;10165557;28;94637;-47
2023/08/13 12:34:51;;;;;;;;;;;23.30;63.90;;;;;;10167310;28;94444;-44
2023/08/13 12:39:53;;;;;;;;;;;23.30;63.90;;;;;;10165898;28;94402;-48
2023/08/13 12:44:55;;;;;;;;;;;23.30;63.90;;;;;;10166097;28;92719;-45
2023/08/13 12:49:57;;;;;;;;;;;23.30;63.80;;;;;;10164278;28;93860;-45
2023/08/13 12:54:59;;;;;;;;;;;23.30;64.10;;;;;;10164675;28;93390;-48
2023/08/13 13:00:01;;;;;;;;;;;23.30;64.20;;;;;;10154034;28;93471;-50
2023/08/13 13:05:03;;;;;;;;;;;23.30;64.10;;;;;;10166409;28;94463;-55
2023/08/13 13:10:05;;;;;;;;;;;23.40;63.90;;;;;;10163291;28;95851;-48
2023/08/13 13:15:07;;;;;;;;;;;23.40;63.70;;;;;;10159000;28;94541;-47
2023/08/13 13:20:12;;;;;;;;;;;23.40;63.70;;;;;;10162357;28;94595;-47
2023/08/13 13:25:13;;;;;;;;;;;23.40;64.00;;;;;;10161588;28;93385;-47
2023/08/13 13:30:15;;;;;;;;;;;23.40;64.00;;;;;;10160631;28;93499;-45
2023/08/13 13:35:17;;;;;;;;;;;23.50;64.10;;;;;;10156659;28;93496;-45
2023/08/13 13:40:19;;;;;;;;;;;23.50;64.10;;;;;;10165282;28;93398;-48
2023/08/13 13:45:21;;;;;;;;;;;23.50;63.90;;;;;;10180236;28;93742;-50
2023/08/13 13:50:23;;;;;;;;;;;23.40;64.10;;;;;;10165177;28;94870;-49
2023/08/13 13:55:24;;;;;;;;;;;23.40;64.10;;;;;;10161889;28;93433;-43
2023/08/13 14:00:27;;;;;;;;;;;23.40;64.20;;;;;;10149415;28;97335;-47
2023/08/13 14:05:29;;;;;;;;;;;23.50;64.20;;;;;;10161919;28;94204;-46
2023/08/13 14:10:32;;;;;;;;;;;23.50;64.10;;;;;;10163271;28;94274;-47
2023/08/13 14:15:34;;;;;;;;;;;23.50;64.00;;;;;;10161882;28;93933;-48
2023/08/13 14:20:36;;;;;;;;;;;23.50;63.90;;;;;;10181585;28;95886;-49
2023/08/13 14:25:38;;;;;;;;;;;23.40;63.40;;;;;;10146073;28;93628;-45
2023/08/13 14:30:39;;;;;;;;;;;23.40;63.50;;;;;;10162829;28;93477;-47
2023/08/13 14:35:41;;;;;;;;;;;23.40;63.60;;;;;;10144601;28;93884;-48
2023/08/13 14:40:43;;;;;;;;;;;23.30;63.50;;;;;;10163577;28;94731;-49
2023/08/13 14:45:45;;;;;;;;;;;23.40;63.50;;;;;;10154991;28;92789;-51
2023/08/13 14:50:48;;;;;;;;;;;23.40;63.40;;;;;;10158981;28;96969;-48
2023/08/13 14:55:50;;;;;;;;;;;23.40;63.50;;;;;;10161337;28;94535;-44
2023/08/13 15:00:52;;;;;;;;;;;23.40;63.40;;;;;;10176959;28;93603;-47
2023/08/13 15:05:53;;;;;;;;;;;23.40;63.40;;;;;;10175264;28;94556;-47
2023/08/13 15:10:55;;;;;;;;;;;23.40;63.40;;;;;;10161834;28;93457;-46
2023/08/13 15:15:57;;;;;;;;;;;23.40;63.40;;;;;;10162447;28;94538;-44
2023/08/13 15:21:00;;;;;;;;;;;23.40;63.50;;;;;;10165499;28;93790;-44
2023/08/13 15:26:01;;;;;;;;;;;23.40;63.70;;;;;;10174283;28;92722;-49
2023/08/13 15:31:09;;;;;;;;;;;23.40;63.80;;;;;;10159025;28;94158;-44
2023/08/13 15:36:11;;;;;;;;;;;23.40;63.60;;;;;;10156413;28;94484;-49
2023/08/13 15:41:13;;;;;;;;;;;23.50;64.10;;;;;;10155598;28;97693;-48
2023/08/13 15:46:15;;;;;;;;;;;23.60;63.90;;;;;;10155953;28;93389;-47
2023/08/13 15:51:16;;;;;;;;;;;23.80;63.80;;;;;;10157676;28;94559;-53
2023/08/13 15:56:18;;;;;;;;;;;23.90;63.30;;;;;;10142932;28;94724;-46
2023/08/13 16:01:20;;;;;;;;;;;23.90;63.10;;;;;;10170090;28;94370;-49
2023/08/13 16:06:22;;;;;;;;;;;23.90;63.10;;;;;;10167265;28;94484;-49
2023/08/13 16:11:24;;;;;;;;;;;23.80;63.30;;;;;;10166827;28;94758;-47
2023/08/13 16:16:25;;;;;;;;;;;23.80;63.40;;;;;;10168957;28;93700;-46
2023/08/13 16:21:27;;;;;;;;;;;23.70;63.50;;;;;;10144147;28;94365;-44
2023/08/13 16:26:29;;;;;;;;;;;23.80;63.60;;;;;;10168139;28;94077;-47
2023/08/13 16:31:31;;;;;;;;;;;23.70;63.50;;;;;;10163385;28;97997;-48
2023/08/13 16:36:34;;;;;;;;;;;23.70;63.50;;;;;;10165690;28;94986;-44
2023/08/13 16:41:36;;;;;;;;;;;23.70;63.60;;;;;;10150182;28;94511;-58
2023/08/13 16:46:37;;;;;;;;;;;23.60;63.50;;;;;;10167566;28;93463;-50
2023/08/13 16:51:39;;;;;;;;;;;23.60;63.30;;;;;;10166710;28;94083;-46
2023/08/13 16:56:41;;;;;;;;;;;23.60;63.30;;;;;;10164019;28;93468;-45
2023/08/13 17:01:43;;;;;;;;;;;23.60;63.50;;;;;;10164790;28;93649;-44
2023/08/13 17:06:46;;;;;;;;;;;23.60;63.50;;;;;;10165767;28;93630;-48
2023/08/13 17:11:47;;;;;;;;;;;23.60;63.40;;;;;;10175291;28;97263;-45
2023/08/13 17:16:49;;;;;;;;;;;23.60;63.40;;;;;;10163687;28;94975;-45
2023/08/13 17:21:51;;;;;;;;;;;23.60;63.40;;;;;;10168376;28;96826;-48
2023/08/13 17:26:53;;;;;;;;;;;23.60;63.50;;;;;;10163260;28;94611;-46
2023/08/13 17:31:55;;;;;;;;;;;23.60;63.50;;;;;;10158096;28;94891;-46
2023/08/13 17:36:58;;;;;;;;;;;23.60;63.40;;;;;;10163499;28;93132;-45
2023/08/13 17:42:00;;;;;;;;;;;23.70;63.60;;;;;;10140054;28;94575;-47
2023/08/13 17:47:02;;;;;;;;;;;23.70;63.50;;;;;;10159421;28;93634;-48
2023/08/13 17:52:05;;;;;;;;;;;23.70;63.80;;;;;;10172088;28;94572;-44
2023/08/13 17:57:07;;;;;;;;;;;23.80;63.90;;;;;;10155597;28;92990;-45
2023/08/13 18:02:08;;;;;;;;;;;23.80;63.80;;;;;;10156619;28;94494;-45
2023/08/13 18:07:11;;;;;;;;;;;23.80;64.00;;;;;;10158577;28;94018;-45
2023/08/13 18:12:12;;;;;;;;;;;23.70;64.10;;;;;;10156117;28;96929;-46
2023/08/13 18:17:14;;;;;;;;;;;23.70;64.30;;;;;;10131958;28;94422;-45
2023/08/13 18:22:16;;;;;;;;;;;23.60;64.20;;;;;;10156886;28;94231;-45
2023/08/13 18:27:18;;;;;;;;;;;23.60;64.10;;;;;;10160179;28;93352;-49
2023/08/13 18:32:20;;;;;;;;;;;23.60;64.10;;;;;;10156603;28;93518;-51
2023/08/13 18:37:22;;;;;;;;;;;23.60;64.00;;;;;;10176409;28;93586;-46
2023/08/13 18:42:24;;;;;;;;;;;23.60;64.10;;;;;;10155826;28;93241;-46
2023/08/13 18:47:25;;;;;;;;;;;23.60;64.10;;;;;;10166431;28;93574;-46
2023/08/13 18:52:27;;;;;;;;;;;23.60;63.90;;;;;;10169036;28;94467;-45
2023/08/13 18:57:30;;;;;;;;;;;23.50;63.80;;;;;;10160423;28;94360;-46
2023/08/13 19:02:32;;;;;;;;;;;23.60;64.00;;;;;;10157348;28;97629;-45
2023/08/13 19:07:34;;;;;;;;;;;23.50;64.00;;;;;;10162454;28;93170;-46
2023/08/13 19:12:36;;;;;;;;;;;23.50;63.90;;;;;;10159569;28;93384;-44
2023/08/13 19:17:38;;;;;;;;;;;23.50;63.70;;;;;;10160524;28;93947;-45
2023/08/13 19:22:39;;;;;;;;;;;23.40;63.90;;;;;;10157765;28;93555;-45
2023/08/13 19:27:41;;;;;;;;;;;23.40;63.80;;;;;;10162689;28;94121;-48
2023/08/13 19:32:43;;;;;;;;;;;23.40;64.10;;;;;;10158579;28;94722;-47
2023/08/13 19:37:45;;;;;;;;;;;23.30;64.10;;;;;;10160883;28;95479;-46
2023/08/13 19:42:46;;;;;;;;;;;23.30;63.90;;;;;;10161343;28;93455;-45
2023/08/13 19:47:48;;;;;;;;;;;23.40;64.20;;;;;;10154866;28;94599;-44
2023/08/13 19:52:50;;;;;;;;;;;23.30;64.70;;;;;;10151505;28;95886;-44
2023/08/13 19:57:52;;;;;;;;;;;23.40;64.30;;;;;;10163300;28;94435;-48
2023/08/13 20:02:54;;;;;;;;;;;23.30;64.40;;;;;;10155945;28;93414;-44
2023/08/13 20:07:56;;;;;;;;;;;23.30;64.40;;;;;;10157918;28;94309;-44
2023/08/13 20:12:58;;;;;;;;;;;23.30;64.50;;;;;;10159550;28;93877;-46
2023/08/13 20:18:00;;;;;;;;;;;23.30;64.50;;;;;;10170434;28;93017;-44
2023/08/13 20:23:02;;;;;;;;;;;23.30;64.60;;;;;;10146389;28;93434;-44
2023/08/13 20:28:04;;;;;;;;;;;23.30;64.60;;;;;;10160579;28;93916;-44
2023/08/13 20:33:06;;;;;;;;;;;23.20;64.60;;;;;;10159086;28;94633;-44
2023/08/13 20:38:07;;;;;;;;;;;23.30;64.80;;;;;;10159179;28;94113;-49
2023/08/13 20:43:09;;;;;;;;;;;23.20;64.80;;;;;;10161903;28;100447;-47
2023/08/13 20:48:12;;;;;;;;;;;23.20;64.80;;;;;;10163985;28;93454;-48
2023/08/13 20:53:14;;;;;;;;;;;23.20;64.90;;;;;;10149653;28;94459;-45
2023/08/13 20:58:16;;;;;;;;;;;23.20;64.90;;;;;;10164869;28;94447;-47
2023/08/13 21:03:18;;;;;;;;;;;23.20;64.90;;;;;;10163998;28;94578;-45
2023/08/13 21:08:20;;;;;;;;;;;23.20;64.90;;;;;;10160551;28;93988;-46
2023/08/13 21:13:22;;;;;;;;;;;23.20;64.90;;;;;;10171787;28;94772;-49
2023/08/13 21:18:24;;;;;;;;;;;23.20;64.90;;;;;;10166594;28;93833;-46
2023/08/13 21:23:25;;;;;;;;;;;23.20;65.00;;;;;;10162813;28;94571;-46
2023/08/13 21:28:27;;;;;;;;;;;23.10;65.00;;;;;;10161028;28;94459;-48
2023/08/13 21:33:29;;;;;;;;;;;23.10;65.00;;;;;;10158508;28;96495;-46
2023/08/13 21:38:31;;;;;;;;;;;23.10;65.10;;;;;;10172965;28;93495;-45
2023/08/13 21:43:33;;;;;;;;;;;23.00;65.00;;;;;;10170520;28;94465;-46
2023/08/13 21:48:35;;;;;;;;;;;23.00;65.00;;;;;;10153967;28;94558;-46
2023/08/13 21:53:37;;;;;;;;;;;23.00;65.00;;;;;;10158391;28;94564;-46
2023/08/13 21:58:39;;;;;;;;;;;23.00;65.00;;;;;;10157749;28;94048;-44
2023/08/13 22:03:41;;;;;;;;;;;22.90;64.90;;;;;;10178585;28;94341;-46
2023/08/13 22:08:43;;;;;;;;;;;22.90;65.00;;;;;;10145356;28;92677;-43
2023/08/13 22:13:44;;;;;;;;;;;22.90;65.00;;;;;;10150613;28;94839;-44
2023/08/13 22:18:46;;;;;;;;;;;22.90;65.00;;;;;;10161844;28;94462;-43
2023/08/13 22:23:48;;;;;;;;;;;22.90;65.00;;;;;;10160839;28;95526;-49
2023/08/13 22:28:50;;;;;;;;;;;22.90;65.00;;;;;;10163509;28;94284;-43
2023/08/13 22:33:52;;;;;;;;;;;22.90;64.90;;;;;;10153899;28;94496;-43
2023/08/13 22:38:54;;;;;;;;;;;22.90;64.90;;;;;;10149062;28;93421;-44
2023/08/13 22:43:55;;;;;;;;;;;22.90;64.90;;;;;;10157136;28;94060;-44
2023/08/13 22:48:57;;;;;;;;;;;22.90;64.80;;;;;;10161886;28;94388;-44
2023/08/13 22:53:59;;;;;;;;;;;22.90;64.80;;;;;;10153104;28;93949;-45
2023/08/13 22:59:01;;;;;;;;;;;22.90;64.80;;;;;;10160969;28;92485;-50
2023/08/13 23:04:03;;;;;;;;;;;22.90;64.80;;;;;;10161823;28;94380;-46
2023/08/13 23:09:06;;;;;;;;;;;22.90;64.80;;;;;;10178720;28;93004;-44
2023/08/13 23:14:08;;;;;;;;;;;22.90;64.70;;;;;;10157553;28;95859;-47
2023/08/13 23:19:10;;;;;;;;;;;22.90;64.70;;;;;;10150323;28;94559;-45
2023/08/13 23:24:12;;;;;;;;;;;22.90;64.70;;;;;;10149320;28;94401;-46
2023/08/13 23:29:14;;;;;;;;;;;22.90;64.60;;;;;;10160664;28;93510;-45
2023/08/13 23:34:15;;;;;;;;;;;22.90;64.60;;;;;;10161548;28;94452;-48
2023/08/13 23:39:17;;;;;;;;;;;22.90;64.60;;;;;;10172328;28;94337;-45
2023/08/13 23:44:19;;;;;;;;;;;22.90;64.50;;;;;;10139685;28;93644;-49
2023/08/13 23:49:21;;;;;;;;;;;22.90;64.40;;;;;;10172423;28;93710;-50
2023/08/13 23:54:22;;;;;;;;;;;22.90;64.40;;;;;;10161127;28;94484;-45
2023/08/13 23:59:24;;;;;;;;;;;22.90;64.50;;;;;;10174192;28;93791;-47
